Fort Spring, West Virginia
Current Conditions -  °F | °C
As of 4:35 PM on Saturday 25 Oct 2014 (Local Time) from KLWB Reporting Station
Clear Clear  
Wind Chill: 19°   Ceiling: Unl
Heat Index: 19°   Visibility: 10mi
Dew Point:   Wind: 10mph
Humidity: 38%   Direction: 270°W
Pressure: 29.95"   Gusts: 16mph
Location:  37.74°N, 80.54°W
Report Text: KLWB 252035Z AUTO 27009G14KT 10SM CLR 19/04 A2995 RMK AO2 T01880042
Loading
Personal Weather Stations






























Interactive Weather Map
Tropical Storm Tracking
New forecast layout! Learn more

10-Day Weather Forecast

Advertisements
Track Severe Weather on mobile